createdAt,value
2022-08-09T00:01:10.623Z,26.40
2022-08-09T00:06:23.040Z,26.60
2022-08-09T00:12:03.854Z,26.80
2022-08-09T00:16:57.111Z,27.10
2022-08-09T00:22:03.676Z,27.30
2022-08-09T00:27:10.653Z,27.50
2022-08-09T00:32:26.690Z,27.80
2022-08-09T00:37:33.448Z,28.00
2022-08-09T00:44:16.419Z,28.20
2022-08-09T00:48:07.520Z,28.30
2022-08-09T00:53:14.157Z,28.30
2022-08-09T00:58:22.084Z,28.70
2022-08-09T01:03:51.541Z,28.70
2022-08-09T01:09:41.953Z,28.70
2022-08-09T01:15:06.067Z,29.10
2022-08-09T01:20:55.416Z,29.00
2022-08-09T01:26:14.574Z,29.10
2022-08-09T01:32:31.281Z,29.30
2022-08-09T01:36:52.279Z,29.60
2022-08-09T01:42:01.391Z,29.50
2022-08-09T01:47:23.790Z,29.80
2022-08-09T01:52:38.315Z,29.70
2022-08-09T01:57:52.945Z,30.00
2022-08-09T02:03:00.576Z,30.20
2022-08-09T02:08:41.013Z,30.30
2022-08-09T02:13:40.558Z,30.80
2022-08-09T02:18:51.001Z,31.50
2022-08-09T02:23:59.799Z,32.00
2022-08-09T02:29:28.454Z,32.00
2022-08-09T02:34:41.645Z,31.50
2022-08-09T02:40:10.570Z,31.60
2022-08-09T02:45:28.700Z,32.30
2022-08-09T02:50:55.762Z,33.10
2022-08-09T02:56:04.383Z,33.10
2022-08-09T03:01:15.216Z,32.90
2022-08-09T03:06:36.292Z,33.10
2022-08-09T03:12:06.093Z,33.40
2022-08-09T03:17:16.484Z,33.40
2022-08-09T03:22:30.311Z,33.50
2022-08-09T03:27:45.496Z,33.70
2022-08-09T03:32:54.150Z,34.00
2022-08-09T03:38:00.986Z,34.40
2022-08-09T03:43:07.775Z,34.60
2022-08-09T03:48:18.937Z,34.50
2022-08-09T03:53:37.803Z,34.80
2022-08-09T03:58:44.238Z,35.50
2022-08-09T04:04:01.323Z,35.50
2022-08-09T04:09:15.083Z,34.50
2022-08-09T04:14:53.681Z,34.80
2022-08-09T04:20:02.662Z,34.40
2022-08-09T04:25:09.968Z,34.60
2022-08-09T04:30:18.613Z,35.00
2022-08-09T04:35:27.267Z,35.30
2022-08-09T04:40:56.483Z,35.00
2022-08-09T04:46:03.508Z,34.80
2022-08-09T04:51:09.634Z,35.40
2022-08-09T04:56:16.457Z,34.60
2022-08-09T05:01:26.165Z,35.50
2022-08-09T05:06:35.823Z,36.20
2022-08-09T05:11:42.077Z,35.90
2022-08-09T05:16:58.947Z,36.00
2022-08-09T05:22:06.154Z,37.50
2022-08-09T05:27:32.004Z,37.80
2022-08-09T05:32:37.894Z,38.80
2022-08-09T05:37:50.095Z,39.00
2022-08-09T05:42:57.123Z,37.50
2022-08-09T05:48:03.222Z,36.10
2022-08-09T05:53:11.582Z,37.50
2022-08-09T05:58:27.785Z,38.20
2022-08-09T06:03:34.825Z,38.10
2022-08-09T06:08:52.477Z,36.90
2022-08-09T06:13:59.524Z,35.60
2022-08-09T06:19:05.451Z,35.10
2022-08-09T06:24:12.129Z,35.40
2022-08-09T06:29:18.248Z,36.90
2022-08-09T06:34:30.679Z,37.20
2022-08-09T06:39:47.471Z,37.00
2022-08-09T06:46:04.425Z,37.50
2022-08-09T06:50:31.110Z,38.40
2022-08-09T06:55:38.329Z,39.40
2022-08-09T07:00:55.188Z,39.20
2022-08-09T07:06:05.492Z,38.80
2022-08-09T07:11:12.376Z,38.10
2022-08-09T07:16:41.669Z,37.40
2022-08-09T07:21:50.110Z,37.00
2022-08-09T07:27:03.258Z,38.10
2022-08-09T07:32:10.416Z,41.10
2022-08-09T07:37:18.193Z,40.50
2022-08-09T07:42:32.780Z,41.20
2022-08-09T07:48:00.886Z,41.30
2022-08-09T07:53:06.463Z,41.00
2022-08-09T07:58:14.149Z,39.60
2022-08-09T08:03:20.314Z,39.30
2022-08-09T08:09:02.585Z,38.90
2022-08-09T08:13:59.082Z,41.00
2022-08-09T08:19:05.867Z,40.90
2022-08-09T08:24:16.514Z,39.90
2022-08-09T08:29:27.941Z,39.10
2022-08-09T08:34:36.330Z,38.40
2022-08-09T08:39:43.639Z,37.40
2022-08-09T08:44:58.229Z,37.30
2022-08-09T08:50:05.495Z,37.10
2022-08-09T08:55:13.749Z,36.80
2022-08-09T09:00:27.863Z,36.40
2022-08-09T09:05:59.635Z,36.20
2022-08-09T09:11:08.057Z,35.80
2022-08-09T09:16:14.665Z,35.60
2022-08-09T09:21:26.405Z,35.40
2022-08-09T09:26:36.567Z,35.10
2022-08-09T09:32:06.542Z,34.90
2022-08-09T09:37:32.483Z,34.80
2022-08-09T09:42:42.968Z,34.70
2022-08-09T09:47:58.723Z,34.40
2022-08-09T09:53:10.438Z,34.00
2022-08-09T09:58:19.360Z,33.80
2022-08-09T10:03:57.199Z,33.80
2022-08-09T10:09:21.739Z,33.50
2022-08-09T10:14:33.859Z,33.30
2022-08-09T10:19:40.570Z,33.00
2022-08-09T10:24:46.793Z,33.00
2022-08-09T10:30:43.846Z,32.90
2022-08-09T10:35:22.786Z,32.70
2022-08-09T10:40:37.619Z,32.70
2022-08-09T10:45:58.389Z,32.50
2022-08-09T10:51:41.292Z,32.40
2022-08-09T10:56:47.679Z,32.10
2022-08-09T11:03:14.732Z,31.90
2022-08-09T11:07:22.098Z,31.80
2022-08-09T11:12:31.083Z,31.70
2022-08-09T11:17:41.838Z,31.50
2022-08-09T11:22:55.516Z,31.40
2022-08-09T11:28:30.653Z,31.30
2022-08-09T11:33:57.808Z,31.20
2022-08-09T11:39:06.353Z,31.20
2022-08-09T11:44:13.557Z,31.10
2022-08-09T11:49:28.086Z,31.10
2022-08-09T11:54:35.206Z,31.00
2022-08-09T11:59:41.805Z,30.90
2022-08-09T12:04:48.137Z,30.90
2022-08-09T12:10:04.065Z,30.80
2022-08-09T12:15:49.276Z,30.80
2022-08-09T12:20:56.764Z,30.80
2022-08-09T12:26:05.345Z,30.60
2022-08-09T12:31:59.382Z,30.70
2022-08-09T12:36:58.886Z,30.70
2022-08-09T12:42:17.192Z,30.60
2022-08-09T12:47:23.990Z,30.60
2022-08-09T12:52:58.391Z,30.60
2022-08-09T12:58:24.251Z,30.60
2022-08-09T13:03:54.010Z,30.60
2022-08-09T13:09:24.564Z,30.60
2022-08-09T13:14:43.893Z,30.60
2022-08-09T13:20:09.445Z,30.60
2022-08-09T13:25:20.461Z,30.50
2022-08-09T13:30:51.315Z,30.50
2022-08-09T13:36:38.548Z,30.50
2022-08-09T13:41:55.586Z,30.40
2022-08-09T13:47:27.187Z,30.40
2022-08-09T13:52:18.967Z,30.40
2022-08-09T13:57:35.493Z,30.50
2022-08-09T14:03:03.509Z,30.60
2022-08-09T14:08:11.798Z,30.70
2022-08-09T14:13:28.453Z,30.80
2022-08-09T14:18:49.057Z,30.80
2022-08-09T14:23:57.649Z,30.80
2022-08-09T14:34:33.021Z,30.60
2022-08-09T14:39:47.212Z,30.60
2022-08-09T14:44:59.309Z,30.60
2022-08-09T14:50:08.387Z,30.50
2022-08-09T14:55:20.440Z,30.50
2022-08-09T15:00:27.794Z,30.50
2022-08-09T15:05:36.778Z,30.60
2022-08-09T15:10:44.183Z,30.50
2022-08-09T15:16:08.352Z,30.50
2022-08-09T15:22:00.594Z,30.40
2022-08-09T15:26:45.313Z,30.40
2022-08-09T15:31:53.428Z,30.40
2022-08-09T15:37:04.850Z,30.40
2022-08-09T15:42:15.006Z,30.40
2022-08-09T15:47:45.647Z,30.30
2022-08-09T15:52:55.131Z,30.40
2022-08-09T15:58:24.065Z,30.30
2022-08-09T16:03:38.139Z,30.30
2022-08-09T16:08:49.640Z,30.30
2022-08-09T16:14:03.575Z,30.20
2022-08-09T16:19:13.886Z,30.20
2022-08-09T16:24:32.740Z,30.20
2022-08-09T16:29:49.829Z,30.20
2022-08-09T16:34:58.619Z,30.20
2022-08-09T16:40:06.038Z,30.10
2022-08-09T16:45:13.212Z,30.10
2022-08-09T16:50:31.693Z,30.10
2022-08-09T16:55:57.905Z,30.10
2022-08-09T17:01:06.171Z,30.10
2022-08-09T17:06:31.614Z,30.00
2022-08-09T17:11:41.495Z,30.00
2022-08-09T17:16:48.076Z,30.00
2022-08-09T17:21:55.621Z,30.00
2022-08-09T17:27:01.605Z,30.00
2022-08-09T17:32:15.818Z,30.00
2022-08-09T17:37:26.316Z,30.00
2022-08-09T17:42:42.037Z,29.90
2022-08-09T17:47:49.161Z,29.90
2022-08-09T17:53:00.823Z,29.90
2022-08-09T17:58:12.378Z,29.90
2022-08-09T18:03:19.047Z,29.80
2022-08-09T18:08:28.209Z,29.80
2022-08-09T18:13:39.755Z,29.70
2022-08-09T18:19:03.939Z,29.70
2022-08-09T18:24:27.715Z,29.70
2022-08-09T18:30:38.746Z,29.70
2022-08-09T18:34:59.551Z,29.70
2022-08-09T18:40:06.042Z,29.70
2022-08-09T18:45:21.482Z,29.60
2022-08-09T18:50:38.461Z,29.50
2022-08-09T18:55:56.090Z,29.50
2022-08-09T19:01:05.359Z,29.50
2022-08-09T19:06:14.667Z,29.40
2022-08-09T19:11:23.738Z,29.40
2022-08-09T19:16:42.340Z,29.30
2022-08-09T19:22:06.631Z,29.20
2022-08-09T19:27:14.336Z,29.20
2022-08-09T19:32:26.647Z,29.10
2022-08-09T19:37:54.487Z,29.00
2022-08-09T19:43:03.397Z,29.00
2022-08-09T19:48:11.801Z,29.00
2022-08-09T19:53:20.741Z,29.00
2022-08-09T19:58:30.186Z,28.90
2022-08-09T20:04:10.709Z,28.90
2022-08-09T20:09:02.997Z,28.80
2022-08-09T20:14:09.399Z,28.80
2022-08-09T20:19:47.595Z,28.80
2022-08-09T20:24:42.241Z,28.70
2022-08-09T20:29:48.289Z,28.70
2022-08-09T20:34:55.901Z,28.70
2022-08-09T20:40:17.563Z,28.70
2022-08-09T20:45:59.049Z,28.70
2022-08-09T20:50:55.730Z,28.60
2022-08-09T20:56:04.501Z,28.60
2022-08-09T21:01:32.868Z,28.60
2022-08-09T21:06:37.565Z,28.60
2022-08-09T21:18:25.553Z,28.50
2022-08-09T21:22:46.957Z,28.40
2022-08-09T21:27:58.538Z,28.40
2022-08-09T21:33:05.831Z,28.30
2022-08-09T21:38:12.580Z,28.30
2022-08-09T21:43:21.675Z,28.30
2022-08-09T21:48:49.290Z,28.30
2022-08-09T21:53:58.395Z,28.20
2022-08-09T21:59:05.982Z,28.20
2022-08-09T22:04:12.353Z,28.10
2022-08-09T22:09:22.683Z,28.10
2022-08-09T22:14:29.840Z,28.10
2022-08-09T22:19:58.649Z,27.70
2022-08-09T22:26:06.492Z,27.30
2022-08-09T22:30:33.214Z,27.20
2022-08-09T22:36:01.855Z,27.40
2022-08-09T22:41:06.729Z,27.50
2022-08-09T22:48:12.887Z,27.70
2022-08-09T22:51:39.596Z,27.90
2022-08-09T22:56:56.626Z,28.00
2022-08-09T23:02:03.192Z,27.90
2022-08-09T23:08:21.360Z,27.90
2022-08-09T23:12:54.252Z,28.00
2022-08-09T23:18:00.094Z,28.00
2022-08-09T23:23:06.342Z,28.00
2022-08-09T23:28:15.648Z,28.10
2022-08-09T23:33:23.434Z,28.10
2022-08-09T23:38:29.530Z,28.20
2022-08-09T23:43:35.475Z,28.20
2022-08-09T23:48:41.373Z,28.30
2022-08-09T23:53:49.570Z,28.40
2022-08-09T23:58:59.138Z,28.50
